createdAt,value
2023-04-29T00:01:25.890Z,101281.75
2023-04-29T00:03:54.140Z,101274.81
2023-04-29T00:06:21.718Z,101281.84
2023-04-29T00:08:49.205Z,101280.97
2023-04-29T00:11:16.228Z,101284.56
2023-04-29T00:13:43.261Z,101285.47
2023-04-29T00:16:10.476Z,101291.63
2023-04-29T00:18:38.053Z,101288.94
2023-04-29T00:21:08.428Z,101288.91
2023-04-29T00:23:36.074Z,101296.81
2023-04-29T00:26:03.571Z,101306.44
2023-04-29T00:28:30.802Z,101294.16
2023-04-29T00:30:57.974Z,101304.66
2023-04-29T00:33:25.091Z,101306.44
2023-04-29T00:35:52.143Z,101304.66
2023-04-29T00:38:19.351Z,101306.44
2023-04-29T00:40:46.875Z,101315.31
2023-04-29T00:43:13.847Z,101307.50
2023-04-29T00:45:41.112Z,101316.25
2023-04-29T00:48:08.155Z,101311.00
2023-04-29T00:50:36.794Z,101318.91
2023-04-29T00:53:04.810Z,101321.56
2023-04-29T00:55:33.948Z,101311.03
2023-04-29T00:58:02.864Z,101319.81
2023-04-29T01:00:31.010Z,101326.00
2023-04-29T01:02:59.797Z,101333.91
2023-04-29T01:05:27.749Z,101333.09
2023-04-29T01:08:44.327Z,101331.34
2023-04-29T01:11:13.586Z,101327.84
2023-04-29T01:13:51.774Z,101333.94
2023-04-29T01:16:31.561Z,101338.28
2023-04-29T01:19:38.650Z,101344.47
2023-04-29T01:22:05.884Z,101350.72
2023-04-29T01:24:34.029Z,101345.50
2023-04-29T01:27:14.392Z,101347.31
2023-04-29T01:29:59.577Z,101341.19
2023-04-29T01:32:46.723Z,101349.09
2023-04-29T01:35:44.536Z,101349.97
2023-04-29T01:38:39.750Z,101359.69
2023-04-29T01:41:35.066Z,101365.00
2023-04-29T01:44:20.521Z,101367.69
2023-04-29T01:46:54.052Z,101366.88
2023-04-29T01:49:30.209Z,101364.28
2023-04-29T01:51:59.821Z,101370.50
2023-04-29T01:54:27.134Z,101372.28
2023-04-29T01:56:55.658Z,101370.50
2023-04-29T01:59:48.786Z,101367.91
2023-04-29T02:02:39.113Z,101369.69
2023-04-29T02:05:16.482Z,101364.47
2023-04-29T02:07:51.199Z,101371.47
2023-04-29T02:10:18.511Z,101378.50
2023-04-29T02:12:51.046Z,101375.00
2023-04-29T02:15:20.254Z,101382.03
2023-04-29T02:17:47.510Z,101383.78
2023-04-29T02:20:14.781Z,101379.44
2023-04-29T02:22:41.760Z,101376.81
2023-04-29T02:25:09.315Z,101383.84
2023-04-29T02:27:37.325Z,101381.16
2023-04-29T02:30:06.583Z,101389.91
2023-04-29T02:32:33.790Z,101394.28
2023-04-29T02:35:00.904Z,101393.41
2023-04-29T02:37:28.999Z,101403.03
2023-04-29T02:39:56.002Z,101398.66
2023-04-29T02:42:23.647Z,101403.00
2023-04-29T02:44:50.663Z,101405.59
2023-04-29T02:47:17.682Z,101416.97
2023-04-29T02:49:45.326Z,101416.97
2023-04-29T02:52:12.833Z,101409.97
2023-04-29T02:54:40.021Z,101418.75
2023-04-29T02:57:08.032Z,101422.25
2023-04-29T02:59:35.072Z,101415.22
2023-04-29T03:02:02.911Z,101422.19
2023-04-29T03:04:30.113Z,101422.25
2023-04-29T03:06:58.585Z,101424.81
2023-04-29T03:09:27.793Z,101426.56
2023-04-29T03:11:55.118Z,101431.81
2023-04-29T03:14:22.435Z,101430.06
2023-04-29T03:16:50.281Z,101437.09
2023-04-29T03:19:17.582Z,101443.16
2023-04-29T03:21:45.278Z,101435.28
2023-04-29T03:24:13.941Z,101443.19
2023-04-29T03:26:42.911Z,101444.13
2023-04-29T03:29:10.090Z,101441.53
2023-04-29T03:31:37.473Z,101445.03
2023-04-29T03:34:04.509Z,101439.78
2023-04-29T03:36:34.911Z,101445.03
2023-04-29T03:39:06.078Z,101446.78
2023-04-29T03:41:33.159Z,101449.41
2023-04-29T03:44:01.017Z,101444.19
2023-04-29T03:46:29.807Z,101444.19
2023-04-29T03:48:57.888Z,101456.41
2023-04-29T03:51:26.030Z,101457.28
2023-04-29T03:53:59.410Z,101456.38
2023-04-29T03:56:27.033Z,101459.88
2023-04-29T03:58:54.324Z,101461.59
2023-04-29T04:01:23.647Z,101465.97
2023-04-29T04:03:52.511Z,101467.75
2023-04-29T04:06:19.868Z,101473.03
2023-04-29T04:08:47.412Z,101474.75
2023-04-29T04:11:18.556Z,101480.91
2023-04-29T04:13:50.233Z,101473.91
2023-04-29T04:16:19.957Z,101478.28
2023-04-29T04:18:47.082Z,101478.28
2023-04-29T04:21:14.864Z,101486.13
2023-04-29T04:23:46.396Z,101495.78
2023-04-29T04:26:18.652Z,101494.06
2023-04-29T04:28:57.628Z,101487.88
2023-04-29T04:31:34.448Z,101498.41
2023-04-29T04:34:01.558Z,101502.78
2023-04-29T04:36:32.581Z,101504.53
2023-04-29T04:38:59.621Z,101515.03
2023-04-29T04:41:27.208Z,101508.03
2023-04-29T04:43:54.250Z,101513.28
2023-04-29T04:46:44.429Z,101515.91
2023-04-29T04:49:34.533Z,101518.53
2023-04-29T04:52:01.965Z,101517.66
2023-04-29T04:54:29.044Z,101520.31
2023-04-29T04:57:06.327Z,101520.28
2023-04-29T04:59:34.269Z,101530.75
2023-04-29T05:02:01.535Z,101527.28
2023-04-29T05:04:29.608Z,101537.84
2023-04-29T05:06:56.666Z,101539.53
2023-04-29T05:09:26.931Z,101544.81
2023-04-29T05:11:54.691Z,101546.56
2023-04-29T05:14:21.732Z,101548.31
2023-04-29T05:16:48.897Z,101560.59
2023-04-29T05:19:16.174Z,101560.59
2023-04-29T05:21:43.229Z,101564.97
2023-04-29T05:24:11.792Z,101576.28
2023-04-29T05:26:38.826Z,101568.38
2023-04-29T05:29:07.154Z,101573.66
2023-04-29T05:31:43.985Z,101569.25
2023-04-29T05:34:11.165Z,101574.50
2023-04-29T05:36:38.149Z,101579.78
2023-04-29T05:39:05.598Z,101581.53
2023-04-29T05:41:33.147Z,101591.16
2023-04-29T05:44:20.080Z,101589.41
2023-04-29T05:46:48.695Z,101586.75
2023-04-29T05:49:16.232Z,101603.34
2023-04-29T05:51:43.400Z,101587.59
2023-04-29T05:54:10.643Z,101595.41
2023-04-29T05:56:37.899Z,101600.66
2023-04-29T05:59:05.929Z,101604.09
2023-04-29T06:01:33.442Z,101608.47
2023-04-29T06:04:00.883Z,101608.44
2023-04-29T06:06:35.745Z,101618.97
2023-04-29T06:09:27.654Z,101616.34
2023-04-29T06:12:01.657Z,101616.31
2023-04-29T06:14:28.678Z,101621.50
2023-04-29T06:16:56.023Z,101627.56
2023-04-29T06:19:25.355Z,101629.25
2023-04-29T06:21:52.936Z,101638.84
2023-04-29T06:24:20.038Z,101637.88
2023-04-29T06:26:47.233Z,101643.06
2023-04-29T06:29:14.196Z,101645.63
2023-04-29T06:31:41.534Z,101648.16
2023-04-29T06:34:09.054Z,101648.09
2023-04-29T06:36:45.157Z,101647.13
2023-04-29T06:39:29.541Z,101649.63
2023-04-29T06:42:14.983Z,101654.69
2023-04-29T06:45:06.018Z,101658.94
2023-04-29T06:47:51.466Z,101666.63
2023-04-29T06:50:29.518Z,101671.63
2023-04-29T06:52:56.587Z,101672.22
2023-04-29T06:55:23.632Z,101686.06
2023-04-29T06:57:50.606Z,101680.47
2023-04-29T07:00:19.429Z,101682.06
2023-04-29T07:02:46.832Z,101683.69
2023-04-29T07:05:14.022Z,101684.53
2023-04-29T07:07:43.304Z,101688.06
2023-04-29T07:10:10.639Z,101700.47
2023-04-29T07:12:37.669Z,101690.88
2023-04-29T07:15:05.254Z,101706.69
2023-04-29T07:17:32.299Z,101704.03
2023-04-29T07:19:59.299Z,101707.66
2023-04-29T07:22:26.385Z,101716.56
2023-04-29T07:24:57.404Z,101715.75
2023-04-29T07:27:25.306Z,101718.34
2023-04-29T07:29:52.554Z,101718.34
2023-04-29T07:32:19.612Z,101725.34
2023-04-29T07:34:47.662Z,101724.38
2023-04-29T07:37:15.723Z,101721.59
2023-04-29T07:39:42.788Z,101722.34
2023-04-29T07:42:10.712Z,101733.69
2023-04-29T07:44:37.766Z,101738.97
2023-04-29T07:47:04.830Z,101737.28
2023-04-29T07:49:31.813Z,101745.19
2023-04-29T07:51:58.773Z,101752.19
2023-04-29T07:54:26.294Z,101753.03
2023-04-29T07:56:53.653Z,101752.13
2023-04-29T07:59:20.955Z,101754.63
2023-04-29T08:01:47.978Z,101761.53
2023-04-29T08:04:15.205Z,101758.59
2023-04-29T08:06:55.284Z,101759.25
2023-04-29T08:09:22.256Z,101761.84
2023-04-29T08:11:49.298Z,101766.03
2023-04-29T08:14:16.261Z,101770.22
2023-04-29T08:16:43.325Z,101766.50
2023-04-29T08:19:10.436Z,101763.50
2023-04-29T08:21:37.623Z,101769.22
2023-04-29T08:24:05.764Z,101764.31
2023-04-29T08:26:32.913Z,101761.25
2023-04-29T08:29:00.382Z,101767.81
2023-04-29T08:31:27.547Z,101768.72
2023-04-29T08:33:54.824Z,101764.38
2023-04-29T08:36:21.822Z,101777.38
2023-04-29T08:38:48.971Z,101777.06
2023-04-29T08:41:16.852Z,101775.81
2023-04-29T08:43:44.239Z,101773.63
2023-04-29T08:46:11.874Z,101775.66
2023-04-29T08:48:45.012Z,101783.88
2023-04-29T08:51:13.861Z,101780.41
2023-04-29T08:53:41.054Z,101781.88
2023-04-29T08:56:21.978Z,101785.97
2023-04-29T08:58:58.239Z,101791.00
2023-04-29T09:01:29.004Z,101788.84
2023-04-29T09:04:37.884Z,101792.88
2023-04-29T09:07:07.130Z,101797.03
2023-04-29T09:09:35.334Z,101795.84
2023-04-29T09:12:02.259Z,101801.38
2023-04-29T09:14:36.067Z,101798.63
2023-04-29T09:17:03.062Z,101796.75
2023-04-29T09:19:35.916Z,101807.34
2023-04-29T09:22:04.798Z,101810.25
2023-04-29T09:24:32.208Z,101810.31
2023-04-29T09:27:00.308Z,101817.56
2023-04-29T09:29:27.493Z,101816.81
2023-04-29T09:31:54.745Z,101818.56
2023-04-29T09:34:37.337Z,101817.34
2023-04-29T09:37:04.484Z,101815.31
2023-04-29T09:39:40.051Z,101812.22
2023-04-29T09:42:08.988Z,101809.84
2023-04-29T09:44:36.057Z,101811.44
2023-04-29T09:47:04.275Z,101808.22
2023-04-29T09:49:37.474Z,101812.22
2023-04-29T09:52:08.839Z,101810.38
2023-04-29T09:54:38.843Z,101815.09
2023-04-29T09:57:08.095Z,101807.66
2023-04-29T09:59:39.743Z,101813.69
2023-04-29T10:02:18.453Z,101823.09
2023-04-29T10:04:54.872Z,101815.94
2023-04-29T10:07:22.854Z,101812.88
2023-04-29T10:09:50.588Z,101822.44
2023-04-29T10:12:20.437Z,101830.09
2023-04-29T10:15:23.016Z,101836.56
2023-04-29T10:18:09.595Z,101837.59
2023-04-29T10:20:44.053Z,101838.19
2023-04-29T10:23:13.306Z,101838.88
2023-04-29T10:25:43.809Z,101837.25
2023-04-29T10:28:17.019Z,101828.47
2023-04-29T10:30:45.795Z,101834.34
2023-04-29T10:33:16.603Z,101830.94
2023-04-29T10:35:45.104Z,101836.16
2023-04-29T10:38:29.142Z,101841.53
2023-04-29T10:41:02.628Z,101837.91
2023-04-29T10:43:31.617Z,101844.66
2023-04-29T10:46:16.774Z,101843.81
2023-04-29T10:48:44.748Z,101841.06
2023-04-29T10:51:12.255Z,101845.47
2023-04-29T10:54:01.734Z,101847.66
2023-04-29T10:56:50.452Z,101846.44
2023-04-29T10:59:22.995Z,101844.06
2023-04-29T11:01:52.967Z,101843.53
2023-04-29T11:04:22.418Z,101836.00
2023-04-29T11:06:58.154Z,101838.97
2023-04-29T11:09:37.189Z,101845.34
2023-04-29T11:12:10.878Z,101850.25
2023-04-29T11:14:40.764Z,101857.31
2023-04-29T11:17:15.394Z,101847.09
2023-04-29T11:19:51.181Z,101858.88
2023-04-29T11:22:18.267Z,101843.75
2023-04-29T11:25:02.846Z,101846.56
2023-04-29T11:27:34.375Z,101851.81
2023-04-29T11:30:05.350Z,101846.25
2023-04-29T11:32:40.304Z,101849.44
2023-04-29T11:35:16.979Z,101846.09
2023-04-29T11:37:46.232Z,101850.81
2023-04-29T11:40:14.809Z,101852.41
2023-04-29T11:42:49.706Z,101853.81
2023-04-29T11:45:20.383Z,101853.09
2023-04-29T11:47:49.538Z,101849.63
2023-04-29T11:50:20.099Z,101852.78
2023-04-29T11:52:49.161Z,101853.75
2023-04-29T11:55:19.538Z,101857.47
2023-04-29T11:57:51.278Z,101867.03
2023-04-29T12:00:18.800Z,101854.25
2023-04-29T12:02:47.221Z,101861.03
2023-04-29T12:05:15.966Z,101854.81
2023-04-29T12:07:43.714Z,101854.25
2023-04-29T12:10:12.116Z,101851.03
2023-04-29T12:12:47.356Z,101852.25
2023-04-29T12:15:15.043Z,101857.72
2023-04-29T12:17:43.846Z,101861.22
2023-04-29T12:20:12.119Z,101864.78
2023-04-29T12:22:39.623Z,101861.09
2023-04-29T12:25:08.039Z,101860.97
2023-04-29T12:27:36.888Z,101864.78
2023-04-29T12:30:09.612Z,101862.63
2023-04-29T12:32:38.272Z,101867.38
2023-04-29T12:35:06.102Z,101871.56
2023-04-29T12:37:33.588Z,101863.16
2023-04-29T12:40:00.692Z,101862.44
2023-04-29T12:42:34.220Z,101863.56
2023-04-29T12:45:01.388Z,101860.06
2023-04-29T12:47:34.785Z,101857.44
2023-04-29T12:50:01.965Z,101860.13
2023-04-29T12:52:28.983Z,101863.94
2023-04-29T12:54:57.748Z,101855.28
2023-04-29T12:57:26.444Z,101860.16
2023-04-29T12:59:53.635Z,101857.59
2023-04-29T13:02:20.830Z,101863.78
2023-04-29T13:04:48.260Z,101865.47
2023-04-29T13:07:15.746Z,101871.03
2023-04-29T13:09:42.764Z,101873.97
2023-04-29T13:12:09.797Z,101877.56
2023-04-29T13:14:36.833Z,101880.53
2023-04-29T13:17:04.096Z,101878.75
2023-04-29T13:19:48.167Z,101881.44
2023-04-29T13:22:18.748Z,101882.88
2023-04-29T13:24:46.571Z,101877.97
2023-04-29T13:27:13.614Z,101882.59
2023-04-29T13:29:40.684Z,101881.19
2023-04-29T13:32:08.908Z,101875.59
2023-04-29T13:34:36.129Z,101869.88
2023-04-29T13:37:03.167Z,101872.56
2023-04-29T13:39:30.182Z,101876.91
2023-04-29T13:41:59.277Z,101874.53
2023-04-29T13:44:34.288Z,101868.28
2023-04-29T13:47:13.999Z,101863.59
2023-04-29T13:50:19.674Z,101868.47
2023-04-29T13:53:01.734Z,101867.88
2023-04-29T14:05:25.813Z,101871.97
2023-04-29T14:07:53.003Z,101869.41
2023-04-29T14:10:20.024Z,101874.03
2023-04-29T14:12:47.288Z,101878.31
2023-04-29T14:15:15.174Z,101882.41
2023-04-29T14:17:42.167Z,101880.28
2023-04-29T14:20:09.740Z,101882.59
2023-04-29T14:22:36.677Z,101885.47
2023-04-29T14:25:03.880Z,101885.38
2023-04-29T14:27:30.846Z,101884.22
2023-04-29T14:29:57.806Z,101883.59
2023-04-29T14:32:24.781Z,101885.47
2023-04-29T14:34:52.010Z,101888.94
2023-04-29T14:37:19.191Z,101885.50
2023-04-29T14:39:46.096Z,101891.16
2023-04-29T14:42:14.953Z,101898.28
2023-04-29T14:44:41.953Z,101893.66
2023-04-29T14:47:09.490Z,101894.66
2023-04-29T14:49:36.435Z,101893.47
2023-04-29T14:52:03.878Z,101893.91
2023-04-29T14:54:31.174Z,101901.00
2023-04-29T14:56:58.151Z,101897.69
2023-04-29T14:59:25.117Z,101903.97
2023-04-29T15:01:52.077Z,101892.97
2023-04-29T15:04:19.194Z,101897.13
2023-04-29T15:06:46.241Z,101897.22
2023-04-29T15:09:13.383Z,101897.72
2023-04-29T15:11:40.403Z,101891.72
2023-04-29T15:14:07.404Z,101886.47
2023-04-29T15:16:35.105Z,101900.97
2023-04-29T15:19:02.109Z,101896.13
2023-04-29T15:21:29.078Z,101894.66
2023-04-29T15:23:56.019Z,101891.34
2023-04-29T15:26:23.057Z,101901.50
2023-04-29T15:28:50.046Z,101894.31
2023-04-29T15:31:17.089Z,101905.59
2023-04-29T15:33:44.149Z,101907.56
2023-04-29T15:36:11.241Z,101911.31
2023-04-29T15:38:38.263Z,101914.13
2023-04-29T15:41:05.612Z,101908.31
2023-04-29T15:43:33.189Z,101910.81
2023-04-29T15:46:00.518Z,101908.78
2023-04-29T15:48:27.612Z,101907.97
2023-04-29T15:50:54.593Z,101914.84
2023-04-29T15:53:21.640Z,101909.13
2023-04-29T15:55:48.592Z,101916.69
2023-04-29T15:58:16.070Z,101916.88
2023-04-29T16:00:43.072Z,101914.28
2023-04-29T16:03:10.076Z,101916.22
2023-04-29T16:05:38.029Z,101912.09
2023-04-29T16:08:05.730Z,101924.38
2023-04-29T16:10:32.842Z,101918.56
2023-04-29T16:13:00.841Z,101927.91
2023-04-29T16:15:29.089Z,101917.78
2023-04-29T16:17:56.173Z,101924.31
2023-04-29T16:20:23.359Z,101917.50
2023-04-29T16:22:50.301Z,101924.03
2023-04-29T16:25:17.567Z,101925.28
2023-04-29T16:27:44.701Z,101922.84
2023-04-29T16:30:12.219Z,101932.91
2023-04-29T16:32:41.607Z,101935.91
2023-04-29T16:35:12.991Z,101930.94
2023-04-29T16:37:40.157Z,101930.34
2023-04-29T16:40:07.952Z,101930.50
2023-04-29T16:42:35.013Z,101933.44
2023-04-29T16:45:02.115Z,101937.25
2023-04-29T16:47:29.133Z,101932.97
2023-04-29T16:49:56.376Z,101932.31
2023-04-29T16:52:24.133Z,101929.81
2023-04-29T16:54:51.084Z,101930.84
2023-04-29T16:57:18.089Z,101929.22
2023-04-29T16:59:45.111Z,101929.41
2023-04-29T17:02:12.405Z,101933.03
2023-04-29T17:04:40.071Z,101932.22
2023-04-29T17:07:09.333Z,101935.78
2023-04-29T17:09:36.481Z,101930.53
2023-04-29T17:12:04.164Z,101937.66
2023-04-29T17:14:31.256Z,101927.81
2023-04-29T17:16:58.661Z,101932.22
2023-04-29T17:19:25.799Z,101932.19
2023-04-29T17:21:53.393Z,101927.81
2023-04-29T17:24:20.387Z,101933.25
2023-04-29T17:26:47.374Z,101936.94
2023-04-29T17:29:14.364Z,101938.81
2023-04-29T17:31:54.544Z,101943.31
2023-04-29T17:34:25.715Z,101945.13
2023-04-29T17:36:53.670Z,101945.19
2023-04-29T17:39:20.827Z,101941.78
2023-04-29T17:41:47.864Z,101954.38
2023-04-29T17:44:14.893Z,101947.56
2023-04-29T17:46:42.698Z,101940.72
2023-04-29T17:49:09.664Z,101945.34
2023-04-29T17:51:36.619Z,101946.41
2023-04-29T17:54:05.506Z,101939.47
2023-04-29T17:56:34.905Z,101939.59
2023-04-29T17:59:05.405Z,101940.09
2023-04-29T18:01:34.015Z,101943.22
2023-04-29T18:04:01.693Z,101941.78
2023-04-29T18:06:30.273Z,101947.38
2023-04-29T18:08:57.456Z,101946.06
2023-04-29T18:11:25.119Z,101957.59
2023-04-29T18:13:54.358Z,101959.44
2023-04-29T18:16:21.826Z,101958.38
2023-04-29T18:18:53.338Z,101965.50
2023-04-29T18:21:27.568Z,101967.00
2023-04-29T18:23:56.184Z,101956.78
2023-04-29T18:26:23.946Z,101956.25
2023-04-29T18:28:51.324Z,101958.03
2023-04-29T18:31:19.991Z,101957.66
2023-04-29T18:33:47.136Z,101968.91
2023-04-29T18:36:16.956Z,101967.88
2023-04-29T18:38:44.148Z,101973.09
2023-04-29T18:41:12.005Z,101971.91
2023-04-29T18:43:39.121Z,101964.75
2023-04-29T18:46:06.205Z,101976.75
2023-04-29T18:48:34.276Z,101974.91
2023-04-29T18:51:04.174Z,101976.41
2023-04-29T18:53:31.528Z,101981.34
2023-04-29T18:55:58.596Z,101982.81
2023-04-29T18:58:28.407Z,101980.63
2023-04-29T19:00:57.686Z,101982.78
2023-04-29T19:03:25.030Z,101995.47
2023-04-29T19:05:52.190Z,101996.66
2023-04-29T19:08:19.256Z,101995.34
2023-04-29T19:10:46.543Z,101991.16
2023-04-29T19:13:13.543Z,102003.78
2023-04-29T19:15:40.974Z,101999.75
2023-04-29T19:18:07.950Z,102008.88
2023-04-29T19:20:35.134Z,102006.50
2023-04-29T19:23:02.163Z,102012.06
2023-04-29T19:25:30.539Z,102012.38
2023-04-29T19:27:57.531Z,102014.34
2023-04-29T19:30:24.817Z,102021.72
2023-04-29T19:32:51.867Z,102027.19
2023-04-29T19:35:18.972Z,102025.66
2023-04-29T19:37:46.028Z,102033.88
2023-04-29T19:40:13.143Z,102019.97
2023-04-29T19:42:40.300Z,102032.41
2023-04-29T19:45:09.379Z,102030.84
2023-04-29T19:47:36.664Z,102038.97
2023-04-29T19:50:05.304Z,102035.66
2023-04-29T19:52:32.518Z,102040.25
2023-04-29T19:54:59.436Z,102045.69
2023-04-29T19:57:27.488Z,102042.31
2023-04-29T19:59:54.695Z,102057.41
2023-04-29T20:02:22.039Z,102055.75
2023-04-29T20:04:49.010Z,102060.28
2023-04-29T20:07:16.046Z,102057.72
2023-04-29T20:09:45.028Z,102052.63
2023-04-29T20:12:12.016Z,102057.19
2023-04-29T20:14:39.046Z,102058.25
2023-04-29T20:17:06.234Z,102063.59
2023-04-29T20:19:34.823Z,102059.31
2023-04-29T20:22:01.945Z,102064.72
2023-04-29T20:24:28.989Z,102071.84
2023-04-29T20:26:56.097Z,102079.84
2023-04-29T20:29:23.208Z,102074.66
2023-04-29T20:31:50.709Z,102080.88
2023-04-29T20:34:17.676Z,102083.56
2023-04-29T20:36:44.752Z,102086.25
2023-04-29T20:39:11.755Z,102088.09
2023-04-29T20:41:38.828Z,102082.88
2023-04-29T20:44:05.815Z,102089.94
2023-04-29T20:46:32.954Z,102085.63
2023-04-29T20:49:00.035Z,102097.94
2023-04-29T20:51:27.653Z,102099.78
2023-04-29T20:53:54.733Z,102098.09
2023-04-29T20:56:21.729Z,102099.88
2023-04-29T20:58:48.770Z,102100.78
2023-04-29T21:01:15.926Z,102109.63
2023-04-29T21:03:43.020Z,102110.53
2023-04-29T21:06:10.070Z,102116.69
2023-04-29T21:08:37.048Z,102111.44
2023-04-29T21:11:05.328Z,102115.84
2023-04-29T21:13:32.296Z,102116.72
2023-04-29T21:15:59.248Z,102123.81
2023-04-29T21:18:26.350Z,102119.44
2023-04-29T21:20:53.420Z,102115.94
2023-04-29T21:23:20.464Z,102115.09
2023-04-29T21:25:47.425Z,102123.00
2023-04-29T21:28:16.683Z,102119.50
2023-04-29T21:30:43.924Z,102116.00
2023-04-29T21:33:10.906Z,102123.06
2023-04-29T21:35:42.077Z,102123.09
2023-04-29T21:38:09.418Z,102126.63
2023-04-29T21:40:42.314Z,102128.41
2023-04-29T21:43:10.958Z,102138.09
2023-04-29T21:45:38.688Z,102125.88
2023-04-29T21:48:15.946Z,102132.03
2023-04-29T21:50:44.666Z,102134.72
2023-04-29T21:53:15.268Z,102136.50
2023-04-29T21:55:43.434Z,102137.38
2023-04-29T21:58:11.051Z,102143.56
2023-04-29T22:00:40.619Z,102142.72
2023-04-29T22:03:09.854Z,102141.84
2023-04-29T22:05:37.368Z,102144.53
2023-04-29T22:08:07.380Z,102148.94
2023-04-29T22:10:34.723Z,102155.97
2023-04-29T22:13:01.773Z,102156.88
2023-04-29T22:15:29.683Z,102157.75
2023-04-29T22:17:57.361Z,102155.13
2023-04-29T22:20:24.961Z,102158.63
2023-04-29T22:22:52.406Z,102158.66
2023-04-29T22:25:22.842Z,102150.75
2023-04-29T22:27:50.356Z,102155.16
2023-04-29T22:30:18.069Z,102155.19
2023-04-29T22:32:45.234Z,102155.19
2023-04-29T22:35:12.277Z,102161.34
2023-04-29T22:37:39.237Z,102170.13
2023-04-29T22:40:07.610Z,102165.75
2023-04-29T22:42:34.659Z,102170.16
2023-04-29T22:45:01.673Z,102163.16
2023-04-29T22:47:29.013Z,102169.31
2023-04-29T22:49:56.281Z,102177.19
2023-04-29T22:52:23.459Z,102178.06
2023-04-29T22:54:50.611Z,102181.59
2023-04-29T22:57:17.535Z,102184.22
2023-04-29T22:59:44.454Z,102185.97
2023-04-29T23:02:11.978Z,102180.72
2023-04-29T23:04:39.066Z,102192.09
2023-04-29T23:07:06.157Z,102184.22
2023-04-29T23:09:33.291Z,102186.00
2023-04-29T23:12:00.190Z,102190.31
2023-04-29T23:14:27.143Z,102192.06
2023-04-29T23:16:54.098Z,102195.56
2023-04-29T23:19:21.336Z,102188.56
2023-04-29T23:21:48.275Z,102194.69
2023-04-29T23:24:15.262Z,102187.66
2023-04-29T23:26:42.221Z,102192.03
2023-04-29T23:29:09.216Z,102194.69
2023-04-29T23:31:36.345Z,102193.78
2023-04-29T23:34:03.867Z,102206.91
2023-04-29T23:36:31.349Z,102207.78
2023-04-29T23:38:58.547Z,102206.88
2023-04-29T23:41:25.586Z,102199.84
2023-04-29T23:43:52.804Z,102194.59
2023-04-29T23:46:19.746Z,102205.97
2023-04-29T23:48:46.743Z,102212.09
2023-04-29T23:51:13.803Z,102208.59
2023-04-29T23:53:40.883Z,102211.19
2023-04-29T23:56:08.041Z,102212.94
2023-04-29T23:58:35.075Z,102208.53
